createdAt,value
2023-08-26T06:47:50.564Z,11.77
2023-08-26T06:50:46.454Z,12.40
2023-08-26T06:57:08.539Z,12.23
2023-08-26T07:00:45.989Z,12.57
2023-08-26T07:33:09.538Z,12.05
2023-08-26T07:40:37.811Z,11.00
2023-08-26T07:45:25.079Z,11.50
2023-08-26T07:50:36.769Z,11.07
2023-08-26T07:53:54.977Z,11.18
2023-08-26T08:00:26.657Z,10.13
2023-08-26T08:13:49.669Z,8.82
2023-08-26T08:19:25.109Z,10.18
2023-08-26T08:19:59.979Z,7.70
2023-08-26T08:22:57.945Z,7.68
2023-08-26T08:25:32.938Z,7.13
2023-08-26T08:28:16.283Z,7.15
2023-08-26T08:31:03.459Z,7.53
2023-08-26T08:34:12.527Z,7.07
2023-08-26T08:37:09.593Z,6.72
2023-08-26T08:43:20.244Z,6.30
2023-08-26T08:45:55.798Z,6.65
2023-08-26T08:49:03.016Z,6.53
2023-08-26T08:52:06.623Z,6.57
2023-08-26T08:54:59.107Z,5.85
2023-08-26T09:00:42.403Z,5.88
2023-08-26T09:03:31.131Z,5.82
2023-08-26T09:06:30.016Z,5.25
2023-08-26T09:09:45.523Z,5.05
2023-08-26T09:15:53.519Z,5.45
2023-08-26T09:18:39.782Z,4.82
2023-08-26T09:21:21.935Z,4.68
2023-08-26T09:24:01.428Z,4.18
2023-08-26T09:27:01.201Z,3.97
2023-08-26T09:29:30.713Z,3.75
2023-08-26T09:32:02.359Z,3.83
2023-08-26T09:34:41.196Z,3.80
2023-08-26T09:37:35.185Z,3.03
2023-08-26T09:40:24.306Z,2.97
2023-08-26T09:42:59.549Z,2.95
2023-08-26T09:53:17.557Z,2.40
2023-08-26T10:50:56.308Z,3.00
2023-08-26T13:04:26.820Z,2.65
2023-08-26T13:08:26.784Z,2.60
2023-08-26T14:20:26.240Z,3.60
2023-08-26T15:48:33.592Z,3.78
2023-08-26T16:01:08.577Z,3.63
2023-08-26T16:06:45.382Z,3.83
2023-08-26T16:17:28.495Z,3.80
2023-08-26T16:20:02.652Z,4.30
2023-08-26T16:22:50.705Z,5.75
2023-08-26T16:25:31.518Z,5.38
2023-08-26T16:28:53.831Z,5.80
2023-08-26T16:31:28.005Z,6.18
2023-08-26T16:34:07.585Z,4.63
2023-08-26T16:36:40.832Z,4.65
2023-08-26T16:39:15.444Z,4.40
2023-08-26T16:42:11.340Z,4.90
2023-08-26T16:45:13.045Z,4.45
2023-08-26T16:47:52.822Z,5.20
2023-08-26T16:50:55.374Z,4.97
2023-08-26T16:53:34.882Z,4.68
2023-08-26T16:56:25.673Z,5.25
2023-08-26T16:59:10.934Z,5.95
2023-08-26T17:02:31.292Z,5.57
2023-08-26T17:05:21.244Z,5.28
2023-08-26T17:08:12.658Z,5.80
2023-08-26T17:11:09.027Z,5.50
2023-08-26T17:14:00.334Z,4.95
2023-08-26T17:16:46.476Z,4.75
2023-08-26T17:19:38.924Z,5.63
2023-08-26T17:22:20.449Z,5.50
2023-08-26T17:27:35.344Z,4.80
2023-08-26T17:30:10.949Z,4.90
2023-08-26T17:32:55.200Z,4.47
2023-08-26T17:35:40.725Z,4.63
2023-08-26T17:38:44.963Z,5.03
2023-08-26T17:41:33.658Z,4.57
2023-08-26T17:44:15.002Z,4.90
2023-08-26T17:46:47.141Z,4.53
2023-08-26T17:49:27.588Z,4.40
2023-08-26T17:51:59.942Z,5.07
2023-08-26T17:55:08.403Z,4.45
2023-08-26T18:01:52.895Z,5.10
2023-08-26T18:05:08.082Z,4.90
2023-08-26T18:11:26.697Z,4.85
2023-08-26T18:14:02.103Z,4.63
2023-08-26T18:16:34.535Z,5.03
2023-08-26T18:19:05.373Z,6.28
2023-08-26T18:21:37.883Z,5.88
2023-08-26T18:24:11.315Z,5.47
2023-08-26T18:26:51.485Z,5.43
2023-08-26T18:37:21.068Z,5.70
2023-08-26T18:40:24.770Z,6.07
2023-08-26T18:43:12.717Z,7.80
2023-08-26T18:46:05.565Z,6.95
2023-08-26T18:49:06.075Z,6.20
2023-08-26T18:51:40.849Z,6.43
2023-08-26T18:54:21.411Z,6.25
2023-08-26T18:56:54.500Z,6.80
2023-08-26T19:31:46.408Z,8.30
2023-08-26T19:34:21.729Z,7.45
2023-08-26T19:36:53.314Z,8.20
2023-08-26T19:39:20.963Z,8.73
2023-08-26T19:41:51.379Z,8.25
2023-08-26T19:44:27.754Z,8.43
2023-08-26T19:47:11.288Z,8.90
2023-08-26T19:50:00.243Z,8.02
2023-08-26T19:58:37.956Z,9.65
2023-08-26T20:01:08.235Z,8.93
2023-08-26T20:03:39.680Z,9.65
2023-08-26T20:06:11.269Z,8.07
2023-08-26T20:12:14.442Z,9.05
2023-08-26T20:15:25.431Z,9.15
2023-08-26T20:18:01.984Z,8.75
2023-08-26T20:20:33.481Z,9.07
2023-08-26T20:23:30.628Z,9.10
2023-08-26T20:26:20.271Z,8.93
2023-08-26T20:28:59.165Z,9.17
2023-08-26T20:31:54.783Z,8.93
2023-08-26T20:35:00.355Z,9.23
2023-08-26T20:37:49.039Z,9.25
2023-08-26T20:43:45.488Z,8.97
2023-08-26T20:46:20.707Z,9.18
2023-08-26T20:48:52.968Z,9.57
2023-08-26T20:51:41.072Z,9.20
2023-08-26T20:54:18.085Z,9.18
2023-08-26T20:56:47.230Z,10.35
2023-08-26T20:59:29.917Z,10.00
2023-08-26T21:02:01.997Z,9.52
2023-08-26T21:04:54.404Z,9.48
2023-08-26T21:10:35.838Z,9.88
2023-08-26T21:13:15.534Z,9.43
2023-08-26T21:15:47.253Z,9.35
2023-08-26T21:18:40.085Z,9.80
2023-08-26T21:24:11.836Z,9.27
2023-08-26T21:26:53.439Z,9.53
2023-08-26T21:29:23.657Z,9.57
2023-08-26T21:31:59.804Z,9.30
2023-08-26T21:35:11.656Z,9.80
2023-08-26T21:58:42.368Z,10.10
2023-08-26T23:22:24.169Z,11.17
2023-08-26T23:25:17.095Z,11.53
2023-08-26T23:31:55.920Z,11.20
2023-08-26T23:35:13.609Z,10.53
2023-08-26T23:41:52.517Z,11.17
2023-08-26T23:44:34.862Z,11.60
2023-08-26T23:47:10.382Z,10.57
2023-08-26T23:49:51.502Z,10.87
2023-08-26T23:52:24.543Z,11.43
2023-08-26T23:55:11.125Z,11.43
2023-08-26T23:57:47.174Z,11.37
